sensor_id;sensor_type;location;lat;lon;timestamp;P1;durP1;ratioP1;P2;durP2;ratioP2
78426;SDS011;67722;50.204;8.570;2023-08-20T00:00:10;0.90;;;0.60;;
78426;SDS011;67722;50.204;8.570;2023-08-20T00:02:36;0.80;;;0.38;;
78426;SDS011;67722;50.204;8.570;2023-08-20T00:05:02;1.38;;;0.60;;
78426;SDS011;67722;50.204;8.570;2023-08-20T00:07:29;1.75;;;0.68;;
78426;SDS011;67722;50.204;8.570;2023-08-20T00:09:55;1.50;;;0.22;;
78426;SDS011;67722;50.204;8.570;2023-08-20T00:12:21;0.73;;;0.50;;
78426;SDS011;67722;50.204;8.570;2023-08-20T00:14:57;1.17;;;0.60;;
78426;SDS011;67722;50.204;8.570;2023-08-20T00:17:35;0.47;;;0.40;;
78426;SDS011;67722;50.204;8.570;2023-08-20T00:20:06;2.67;;;1.20;;
78426;SDS011;67722;50.204;8.570;2023-08-20T00:22:42;0.95;;;0.45;;
78426;SDS011;67722;50.204;8.570;2023-08-20T00:25:10;2.08;;;0.32;;
78426;SDS011;67722;50.204;8.570;2023-08-20T00:27:36;1.48;;;1.00;;
78426;SDS011;67722;50.204;8.570;2023-08-20T00:30:01;1.25;;;0.85;;
78426;SDS011;67722;50.204;8.570;2023-08-20T00:32:28;0.73;;;0.57;;
78426;SDS011;67722;50.204;8.570;2023-08-20T00:34:54;0.38;;;0.28;;
78426;SDS011;67722;50.204;8.570;2023-08-20T00:37:19;0.33;;;0.23;;
78426;SDS011;67722;50.204;8.570;2023-08-20T00:39:45;1.38;;;0.80;;
78426;SDS011;67722;50.204;8.570;2023-08-20T00:42:10;1.55;;;0.65;;
78426;SDS011;67722;50.204;8.570;2023-08-20T00:44:35;1.27;;;0.73;;
78426;SDS011;67722;50.204;8.570;2023-08-20T00:47:01;1.05;;;0.50;;
78426;SDS011;67722;50.204;8.570;2023-08-20T00:49:28;0.57;;;0.30;;
78426;SDS011;67722;50.204;8.570;2023-08-20T00:51:54;1.67;;;0.52;;
78426;SDS011;67722;50.204;8.570;2023-08-20T00:54:20;1.30;;;0.40;;
78426;SDS011;67722;50.204;8.570;2023-08-20T00:56:46;1.02;;;0.32;;
78426;SDS011;67722;50.204;8.570;2023-08-20T00:59:12;0.50;;;0.40;;
78426;SDS011;67722;50.204;8.570;2023-08-20T01:01:38;1.13;;;0.50;;
78426;SDS011;67722;50.204;8.570;2023-08-20T01:04:03;1.07;;;0.73;;
78426;SDS011;67722;50.204;8.570;2023-08-20T01:06:41;0.70;;;0.30;;
78426;SDS011;67722;50.204;8.570;2023-08-20T01:11:47;1.48;;;0.57;;
78426;SDS011;67722;50.204;8.570;2023-08-20T01:14:17;1.98;;;0.77;;
78426;SDS011;67722;50.204;8.570;2023-08-20T01:16:43;0.40;;;0.40;;
78426;SDS011;67722;50.204;8.570;2023-08-20T01:19:10;0.50;;;0.40;;
78426;SDS011;67722;50.204;8.570;2023-08-20T01:21:42;0.43;;;0.38;;
78426;SDS011;67722;50.204;8.570;2023-08-20T01:27:10;1.05;;;0.20;;
78426;SDS011;67722;50.204;8.570;2023-08-20T01:29:45;0.20;;;0.13;;
78426;SDS011;67722;50.204;8.570;2023-08-20T01:32:11;0.30;;;0.20;;
78426;SDS011;67722;50.204;8.570;2023-08-20T01:34:37;0.70;;;0.28;;
78426;SDS011;67722;50.204;8.570;2023-08-20T01:37:02;0.80;;;0.35;;
78426;SDS011;67722;50.204;8.570;2023-08-20T01:39:27;1.02;;;0.40;;
78426;SDS011;67722;50.204;8.570;2023-08-20T01:41:53;0.40;;;0.25;;
78426;SDS011;67722;50.204;8.570;2023-08-20T01:44:18;0.50;;;0.30;;
78426;SDS011;67722;50.204;8.570;2023-08-20T01:46:43;0.70;;;0.30;;
78426;SDS011;67722;50.204;8.570;2023-08-20T01:49:09;0.93;;;0.50;;
78426;SDS011;67722;50.204;8.570;2023-08-20T01:51:34;1.53;;;0.43;;
78426;SDS011;67722;50.204;8.570;2023-08-20T01:54:01;0.22;;;0.15;;
78426;SDS011;67722;50.204;8.570;2023-08-20T01:56:27;0.52;;;0.22;;
78426;SDS011;67722;50.204;8.570;2023-08-20T01:58:52;0.60;;;0.57;;
78426;SDS011;67722;50.204;8.570;2023-08-20T02:01:17;0.97;;;0.47;;
78426;SDS011;67722;50.204;8.570;2023-08-20T02:03:43;0.50;;;0.43;;
78426;SDS011;67722;50.204;8.570;2023-08-20T02:06:08;1.00;;;0.63;;
78426;SDS011;67722;50.204;8.570;2023-08-20T02:08:33;0.60;;;0.60;;
78426;SDS011;67722;50.204;8.570;2023-08-20T02:11:03;0.50;;;0.25;;
78426;SDS011;67722;50.204;8.570;2023-08-20T02:13:28;1.15;;;0.57;;
78426;SDS011;67722;50.204;8.570;2023-08-20T02:16:00;2.63;;;0.57;;
78426;SDS011;67722;50.204;8.570;2023-08-20T02:18:26;0.13;;;0.13;;
78426;SDS011;67722;50.204;8.570;2023-08-20T02:20:52;0.63;;;0.57;;
78426;SDS011;67722;50.204;8.570;2023-08-20T02:23:17;1.00;;;0.77;;
78426;SDS011;67722;50.204;8.570;2023-08-20T02:25:43;2.70;;;1.17;;
78426;SDS011;67722;50.204;8.570;2023-08-20T02:28:08;1.20;;;0.63;;
78426;SDS011;67722;50.204;8.570;2023-08-20T02:30:38;0.73;;;0.60;;
78426;SDS011;67722;50.204;8.570;2023-08-20T02:33:07;0.77;;;0.40;;
78426;SDS011;67722;50.204;8.570;2023-08-20T02:35:32;1.42;;;0.52;;
78426;SDS011;67722;50.204;8.570;2023-08-20T02:37:58;1.05;;;0.98;;
78426;SDS011;67722;50.204;8.570;2023-08-20T02:40:24;2.05;;;0.50;;
78426;SDS011;67722;50.204;8.570;2023-08-20T02:42:49;1.10;;;0.60;;
78426;SDS011;67722;50.204;8.570;2023-08-20T02:45:14;0.50;;;0.43;;
78426;SDS011;67722;50.204;8.570;2023-08-20T02:47:40;1.00;;;0.90;;
78426;SDS011;67722;50.204;8.570;2023-08-20T02:50:05;1.77;;;0.50;;
78426;SDS011;67722;50.204;8.570;2023-08-20T02:52:31;1.27;;;0.50;;
78426;SDS011;67722;50.204;8.570;2023-08-20T02:54:56;0.77;;;0.68;;
78426;SDS011;67722;50.204;8.570;2023-08-20T02:57:21;0.83;;;0.40;;
78426;SDS011;67722;50.204;8.570;2023-08-20T02:59:47;0.57;;;0.47;;
78426;SDS011;67722;50.204;8.570;2023-08-20T03:02:12;3.40;;;0.60;;
78426;SDS011;67722;50.204;8.570;2023-08-20T03:04:37;0.60;;;0.50;;
78426;SDS011;67722;50.204;8.570;2023-08-20T03:07:03;1.85;;;1.08;;
78426;SDS011;67722;50.204;8.570;2023-08-20T03:09:28;1.05;;;0.80;;
78426;SDS011;67722;50.204;8.570;2023-08-20T03:11:53;1.10;;;0.80;;
78426;SDS011;67722;50.204;8.570;2023-08-20T03:14:19;1.23;;;1.00;;
78426;SDS011;67722;50.204;8.570;2023-08-20T03:16:44;0.73;;;0.63;;
78426;SDS011;67722;50.204;8.570;2023-08-20T03:19:09;1.50;;;0.80;;
78426;SDS011;67722;50.204;8.570;2023-08-20T03:21:34;1.53;;;1.07;;
78426;SDS011;67722;50.204;8.570;2023-08-20T03:24:00;2.53;;;0.70;;
78426;SDS011;67722;50.204;8.570;2023-08-20T03:26:25;0.77;;;0.23;;
78426;SDS011;67722;50.204;8.570;2023-08-20T03:28:51;1.02;;;0.60;;
78426;SDS011;67722;50.204;8.570;2023-08-20T03:31:16;1.90;;;0.43;;
78426;SDS011;67722;50.204;8.570;2023-08-20T03:33:42;1.63;;;0.73;;
78426;SDS011;67722;50.204;8.570;2023-08-20T03:36:07;1.13;;;0.70;;
78426;SDS011;67722;50.204;8.570;2023-08-20T03:38:32;0.90;;;0.43;;
78426;SDS011;67722;50.204;8.570;2023-08-20T03:40:58;1.93;;;0.67;;
78426;SDS011;67722;50.204;8.570;2023-08-20T03:43:23;0.93;;;0.80;;
78426;SDS011;67722;50.204;8.570;2023-08-20T03:45:51;1.10;;;0.65;;
78426;SDS011;67722;50.204;8.570;2023-08-20T03:48:18;1.48;;;0.80;;
78426;SDS011;67722;50.204;8.570;2023-08-20T03:50:43;1.33;;;0.50;;
78426;SDS011;67722;50.204;8.570;2023-08-20T03:53:09;1.90;;;0.63;;
78426;SDS011;67722;50.204;8.570;2023-08-20T03:55:34;2.03;;;0.87;;
78426;SDS011;67722;50.204;8.570;2023-08-20T03:57:59;0.40;;;0.30;;
78426;SDS011;67722;50.204;8.570;2023-08-20T04:00:25;3.75;;;1.35;;
78426;SDS011;67722;50.204;8.570;2023-08-20T04:02:50;2.55;;;1.23;;
78426;SDS011;67722;50.204;8.570;2023-08-20T04:05:15;1.07;;;0.83;;
78426;SDS011;67722;50.204;8.570;2023-08-20T04:07:41;6.47;;;1.27;;
78426;SDS011;67722;50.204;8.570;2023-08-20T04:10:07;0.53;;;0.30;;
78426;SDS011;67722;50.204;8.570;2023-08-20T04:12:33;1.15;;;0.98;;
78426;SDS011;67722;50.204;8.570;2023-08-20T04:14:59;0.95;;;0.80;;
78426;SDS011;67722;50.204;8.570;2023-08-20T04:17:24;1.23;;;0.73;;
78426;SDS011;67722;50.204;8.570;2023-08-20T04:19:49;3.00;;;0.87;;
78426;SDS011;67722;50.204;8.570;2023-08-20T04:22:15;2.15;;;1.17;;
78426;SDS011;67722;50.204;8.570;2023-08-20T04:24:40;1.67;;;0.93;;
78426;SDS011;67722;50.204;8.570;2023-08-20T04:27:05;0.95;;;0.85;;
78426;SDS011;67722;50.204;8.570;2023-08-20T04:29:31;0.63;;;0.20;;
78426;SDS011;67722;50.204;8.570;2023-08-20T04:31:56;1.27;;;0.77;;
78426;SDS011;67722;50.204;8.570;2023-08-20T04:34:21;1.73;;;0.80;;
78426;SDS011;67722;50.204;8.570;2023-08-20T04:36:47;1.40;;;0.82;;
78426;SDS011;67722;50.204;8.570;2023-08-20T04:39:12;1.43;;;0.43;;
78426;SDS011;67722;50.204;8.570;2023-08-20T04:41:37;1.37;;;0.40;;
78426;SDS011;67722;50.204;8.570;2023-08-20T04:44:03;2.00;;;1.07;;
78426;SDS011;67722;50.204;8.570;2023-08-20T04:46:28;1.75;;;0.40;;
78426;SDS011;67722;50.204;8.570;2023-08-20T04:48:53;1.00;;;0.53;;
78426;SDS011;67722;50.204;8.570;2023-08-20T04:51:19;1.58;;;0.88;;
78426;SDS011;67722;50.204;8.570;2023-08-20T04:53:44;0.43;;;0.38;;
78426;SDS011;67722;50.204;8.570;2023-08-20T04:56:11;1.70;;;1.05;;
78426;SDS011;67722;50.204;8.570;2023-08-20T04:58:37;6.57;;;0.80;;
78426;SDS011;67722;50.204;8.570;2023-08-20T05:01:02;0.75;;;0.40;;
78426;SDS011;67722;50.204;8.570;2023-08-20T05:03:27;1.15;;;0.45;;
78426;SDS011;67722;50.204;8.570;2023-08-20T05:05:53;1.77;;;1.30;;
78426;SDS011;67722;50.204;8.570;2023-08-20T05:08:18;0.70;;;0.63;;
78426;SDS011;67722;50.204;8.570;2023-08-20T05:10:43;1.45;;;0.70;;
78426;SDS011;67722;50.204;8.570;2023-08-20T05:13:09;1.77;;;0.60;;
78426;SDS011;67722;50.204;8.570;2023-08-20T05:15:34;1.55;;;1.30;;
78426;SDS011;67722;50.204;8.570;2023-08-20T05:18:00;1.30;;;0.53;;
78426;SDS011;67722;50.204;8.570;2023-08-20T05:20:26;0.45;;;0.35;;
78426;SDS011;67722;50.204;8.570;2023-08-20T05:22:51;0.43;;;0.43;;
78426;SDS011;67722;50.204;8.570;2023-08-20T05:25:16;2.35;;;1.02;;
78426;SDS011;67722;50.204;8.570;2023-08-20T05:27:42;2.10;;;0.82;;
78426;SDS011;67722;50.204;8.570;2023-08-20T05:30:07;1.08;;;0.77;;
78426;SDS011;67722;50.204;8.570;2023-08-20T05:32:33;0.98;;;0.80;;
78426;SDS011;67722;50.204;8.570;2023-08-20T05:34:58;0.75;;;0.75;;
78426;SDS011;67722;50.204;8.570;2023-08-20T05:37:24;1.40;;;0.77;;
78426;SDS011;67722;50.204;8.570;2023-08-20T05:39:49;1.37;;;0.90;;
78426;SDS011;67722;50.204;8.570;2023-08-20T05:42:14;2.07;;;1.07;;
78426;SDS011;67722;50.204;8.570;2023-08-20T05:44:40;1.67;;;1.03;;
78426;SDS011;67722;50.204;8.570;2023-08-20T05:47:05;1.77;;;0.85;;
78426;SDS011;67722;50.204;8.570;2023-08-20T05:49:30;1.03;;;0.80;;
78426;SDS011;67722;50.204;8.570;2023-08-20T05:51:56;2.22;;;0.82;;
78426;SDS011;67722;50.204;8.570;2023-08-20T05:54:21;1.67;;;1.05;;
78426;SDS011;67722;50.204;8.570;2023-08-20T05:56:46;1.47;;;1.10;;
78426;SDS011;67722;50.204;8.570;2023-08-20T05:59:12;1.13;;;0.80;;
78426;SDS011;67722;50.204;8.570;2023-08-20T06:01:37;1.90;;;0.90;;
78426;SDS011;67722;50.204;8.570;2023-08-20T06:04:02;1.40;;;0.90;;
78426;SDS011;67722;50.204;8.570;2023-08-20T06:06:28;3.30;;;1.70;;
78426;SDS011;67722;50.204;8.570;2023-08-20T06:08:54;1.02;;;0.70;;
78426;SDS011;67722;50.204;8.570;2023-08-20T06:11:20;1.65;;;0.88;;
78426;SDS011;67722;50.204;8.570;2023-08-20T06:13:45;1.20;;;0.90;;
78426;SDS011;67722;50.204;8.570;2023-08-20T06:16:11;1.67;;;0.95;;
78426;SDS011;67722;50.204;8.570;2023-08-20T06:18:36;2.87;;;1.37;;
78426;SDS011;67722;50.204;8.570;2023-08-20T06:21:02;2.05;;;1.60;;
78426;SDS011;67722;50.204;8.570;2023-08-20T06:23:28;1.33;;;0.98;;
78426;SDS011;67722;50.204;8.570;2023-08-20T06:25:53;2.30;;;1.13;;
78426;SDS011;67722;50.204;8.570;2023-08-20T06:28:19;1.90;;;1.73;;
78426;SDS011;67722;50.204;8.570;2023-08-20T06:30:44;2.83;;;1.42;;
78426;SDS011;67722;50.204;8.570;2023-08-20T06:33:10;1.35;;;0.93;;
78426;SDS011;67722;50.204;8.570;2023-08-20T06:35:35;1.35;;;1.00;;
78426;SDS011;67722;50.204;8.570;2023-08-20T06:38:00;1.55;;;1.17;;
78426;SDS011;67722;50.204;8.570;2023-08-20T06:40:26;1.60;;;1.37;;
78426;SDS011;67722;50.204;8.570;2023-08-20T06:42:51;1.80;;;1.10;;
78426;SDS011;67722;50.204;8.570;2023-08-20T06:45:16;2.20;;;1.30;;
78426;SDS011;67722;50.204;8.570;2023-08-20T06:47:42;1.92;;;1.33;;
78426;SDS011;67722;50.204;8.570;2023-08-20T06:50:07;4.30;;;1.80;;
78426;SDS011;67722;50.204;8.570;2023-08-20T06:52:33;1.80;;;1.02;;
78426;SDS011;67722;50.204;8.570;2023-08-20T06:54:58;2.42;;;1.15;;
78426;SDS011;67722;50.204;8.570;2023-08-20T06:57:23;1.97;;;1.00;;
78426;SDS011;67722;50.204;8.570;2023-08-20T06:59:49;2.90;;;1.25;;
78426;SDS011;67722;50.204;8.570;2023-08-20T07:02:14;1.67;;;0.90;;
78426;SDS011;67722;50.204;8.570;2023-08-20T07:04:40;2.83;;;1.33;;
78426;SDS011;67722;50.204;8.570;2023-08-20T07:07:05;2.90;;;1.30;;
78426;SDS011;67722;50.204;8.570;2023-08-20T07:09:30;1.25;;;0.90;;
78426;SDS011;67722;50.204;8.570;2023-08-20T07:11:56;1.90;;;0.93;;
78426;SDS011;67722;50.204;8.570;2023-08-20T07:14:21;2.35;;;1.30;;
78426;SDS011;67722;50.204;8.570;2023-08-20T07:16:47;1.75;;;1.20;;
78426;SDS011;67722;50.204;8.570;2023-08-20T07:19:12;1.48;;;1.15;;
78426;SDS011;67722;50.204;8.570;2023-08-20T07:21:37;1.87;;;1.30;;
78426;SDS011;67722;50.204;8.570;2023-08-20T07:24:03;4.63;;;2.00;;
78426;SDS011;67722;50.204;8.570;2023-08-20T07:26:29;3.00;;;1.17;;
78426;SDS011;67722;50.204;8.570;2023-08-20T07:28:54;1.90;;;1.17;;
78426;SDS011;67722;50.204;8.570;2023-08-20T07:31:23;2.03;;;1.20;;
78426;SDS011;67722;50.204;8.570;2023-08-20T07:33:49;2.72;;;1.30;;
78426;SDS011;67722;50.204;8.570;2023-08-20T07:36:15;2.05;;;1.25;;
78426;SDS011;67722;50.204;8.570;2023-08-20T07:38:41;3.40;;;1.27;;
78426;SDS011;67722;50.204;8.570;2023-08-20T07:41:07;2.03;;;1.52;;
78426;SDS011;67722;50.204;8.570;2023-08-20T07:43:36;2.10;;;1.40;;
78426;SDS011;67722;50.204;8.570;2023-08-20T07:46:02;1.88;;;1.60;;
78426;SDS011;67722;50.204;8.570;2023-08-20T07:48:28;4.45;;;1.58;;
78426;SDS011;67722;50.204;8.570;2023-08-20T07:50:53;2.13;;;1.03;;
78426;SDS011;67722;50.204;8.570;2023-08-20T07:53:19;1.63;;;0.90;;
78426;SDS011;67722;50.204;8.570;2023-08-20T07:55:44;1.80;;;1.10;;
78426;SDS011;67722;50.204;8.570;2023-08-20T07:58:09;1.43;;;1.10;;
78426;SDS011;67722;50.204;8.570;2023-08-20T08:00:35;1.43;;;1.30;;
78426;SDS011;67722;50.204;8.570;2023-08-20T08:03:00;1.88;;;1.08;;
78426;SDS011;67722;50.204;8.570;2023-08-20T08:05:25;1.40;;;1.00;;
78426;SDS011;67722;50.204;8.570;2023-08-20T08:07:51;2.90;;;2.60;;
78426;SDS011;67722;50.204;8.570;2023-08-20T08:10:16;1.77;;;1.07;;
78426;SDS011;67722;50.204;8.570;2023-08-20T08:12:41;1.13;;;0.80;;
78426;SDS011;67722;50.204;8.570;2023-08-20T08:15:07;2.80;;;1.00;;
78426;SDS011;67722;50.204;8.570;2023-08-20T08:17:32;1.38;;;0.93;;
78426;SDS011;67722;50.204;8.570;2023-08-20T08:19:57;4.03;;;1.50;;
78426;SDS011;67722;50.204;8.570;2023-08-20T08:22:23;1.92;;;1.00;;
78426;SDS011;67722;50.204;8.570;2023-08-20T08:24:48;1.50;;;1.00;;
78426;SDS011;67722;50.204;8.570;2023-08-20T08:27:14;1.20;;;1.05;;
78426;SDS011;67722;50.204;8.570;2023-08-20T08:29:39;2.03;;;1.10;;
78426;SDS011;67722;50.204;8.570;2023-08-20T08:32:05;1.50;;;1.10;;
78426;SDS011;67722;50.204;8.570;2023-08-20T08:34:30;1.05;;;0.90;;
78426;SDS011;67722;50.204;8.570;2023-08-20T08:36:55;2.10;;;1.55;;
78426;SDS011;67722;50.204;8.570;2023-08-20T08:39:21;1.10;;;0.80;;
78426;SDS011;67722;50.204;8.570;2023-08-20T08:41:48;1.88;;;1.13;;
78426;SDS011;67722;50.204;8.570;2023-08-20T08:44:15;2.83;;;1.42;;
78426;SDS011;67722;50.204;8.570;2023-08-20T08:46:41;1.95;;;1.55;;
78426;SDS011;67722;50.204;8.570;2023-08-20T08:49:06;1.15;;;0.88;;
78426;SDS011;67722;50.204;8.570;2023-08-20T08:51:33;1.55;;;0.85;;
78426;SDS011;67722;50.204;8.570;2023-08-20T08:53:59;1.88;;;1.05;;
78426;SDS011;67722;50.204;8.570;2023-08-20T08:56:25;2.20;;;1.52;;
78426;SDS011;67722;50.204;8.570;2023-08-20T08:58:50;2.33;;;1.70;;
78426;SDS011;67722;50.204;8.570;2023-08-20T09:01:15;1.67;;;1.33;;
78426;SDS011;67722;50.204;8.570;2023-08-20T09:03:41;1.90;;;1.27;;
78426;SDS011;67722;50.204;8.570;2023-08-20T09:06:09;2.10;;;1.38;;
78426;SDS011;67722;50.204;8.570;2023-08-20T09:08:35;2.78;;;1.63;;
78426;SDS011;67722;50.204;8.570;2023-08-20T09:11:01;1.58;;;1.38;;
78426;SDS011;67722;50.204;8.570;2023-08-20T09:15:58;1.65;;;1.10;;
78426;SDS011;67722;50.204;8.570;2023-08-20T09:18:24;1.85;;;1.73;;
78426;SDS011;67722;50.204;8.570;2023-08-20T09:20:49;1.53;;;1.10;;
78426;SDS011;67722;50.204;8.570;2023-08-20T09:23:15;2.45;;;1.25;;
78426;SDS011;67722;50.204;8.570;2023-08-20T09:25:44;1.60;;;1.00;;
78426;SDS011;67722;50.204;8.570;2023-08-20T09:28:10;1.48;;;1.23;;
78426;SDS011;67722;50.204;8.570;2023-08-20T09:30:35;1.77;;;1.27;;
78426;SDS011;67722;50.204;8.570;2023-08-20T09:33:04;2.50;;;1.65;;
78426;SDS011;67722;50.204;8.570;2023-08-20T09:35:35;1.73;;;1.60;;
78426;SDS011;67722;50.204;8.570;2023-08-20T09:38:02;2.05;;;1.50;;
78426;SDS011;67722;50.204;8.570;2023-08-20T09:40:28;2.13;;;1.50;;
78426;SDS011;67722;50.204;8.570;2023-08-20T09:42:54;2.28;;;1.40;;
78426;SDS011;67722;50.204;8.570;2023-08-20T09:45:20;1.63;;;1.23;;
78426;SDS011;67722;50.204;8.570;2023-08-20T09:47:47;1.75;;;1.50;;
78426;SDS011;67722;50.204;8.570;2023-08-20T09:50:13;1.38;;;1.05;;
78426;SDS011;67722;50.204;8.570;2023-08-20T09:52:53;1.83;;;1.13;;
78426;SDS011;67722;50.204;8.570;2023-08-20T09:55:42;1.40;;;0.90;;
78426;SDS011;67722;50.204;8.570;2023-08-20T09:58:08;1.48;;;1.10;;
78426;SDS011;67722;50.204;8.570;2023-08-20T10:00:34;2.08;;;1.67;;
78426;SDS011;67722;50.204;8.570;2023-08-20T10:03:00;2.70;;;1.48;;
78426;SDS011;67722;50.204;8.570;2023-08-20T10:05:25;2.17;;;1.98;;
78426;SDS011;67722;50.204;8.570;2023-08-20T10:07:52;1.40;;;1.30;;
78426;SDS011;67722;50.204;8.570;2023-08-20T10:10:19;1.77;;;1.63;;
78426;SDS011;67722;50.204;8.570;2023-08-20T10:12:45;2.40;;;1.48;;
78426;SDS011;67722;50.204;8.570;2023-08-20T10:15:11;1.77;;;1.48;;
78426;SDS011;67722;50.204;8.570;2023-08-20T10:17:39;1.52;;;1.30;;
78426;SDS011;67722;50.204;8.570;2023-08-20T10:20:06;1.73;;;1.58;;
78426;SDS011;67722;50.204;8.570;2023-08-20T10:25:04;2.22;;;1.55;;
78426;SDS011;67722;50.204;8.570;2023-08-20T10:27:31;1.45;;;1.15;;
78426;SDS011;67722;50.204;8.570;2023-08-20T10:30:01;2.20;;;1.58;;
78426;SDS011;67722;50.204;8.570;2023-08-20T10:35:17;2.00;;;1.80;;
78426;SDS011;67722;50.204;8.570;2023-08-20T10:48:42;1.73;;;1.63;;
78426;SDS011;67722;50.204;8.570;2023-08-20T10:56:47;2.13;;;1.90;;
78426;SDS011;67722;50.204;8.570;2023-08-20T10:59:14;1.90;;;1.70;;
78426;SDS011;67722;50.204;8.570;2023-08-20T11:01:44;2.08;;;1.30;;
78426;SDS011;67722;50.204;8.570;2023-08-20T11:04:11;2.50;;;2.22;;
78426;SDS011;67722;50.204;8.570;2023-08-20T11:06:36;2.30;;;2.03;;
78426;SDS011;67722;50.204;8.570;2023-08-20T11:09:02;2.00;;;1.63;;
78426;SDS011;67722;50.204;8.570;2023-08-20T11:11:33;2.20;;;1.80;;
78426;SDS011;67722;50.204;8.570;2023-08-20T11:14:04;1.65;;;1.55;;
78426;SDS011;67722;50.204;8.570;2023-08-20T11:16:31;3.13;;;2.92;;
78426;SDS011;67722;50.204;8.570;2023-08-20T11:18:56;2.30;;;2.10;;
78426;SDS011;67722;50.204;8.570;2023-08-20T11:21:22;2.08;;;1.88;;
78426;SDS011;67722;50.204;8.570;2023-08-20T11:23:48;3.30;;;1.40;;
78426;SDS011;67722;50.204;8.570;2023-08-20T11:26:13;2.65;;;2.45;;
78426;SDS011;67722;50.204;8.570;2023-08-20T11:28:38;1.65;;;1.42;;
78426;SDS011;67722;50.204;8.570;2023-08-20T11:31:04;1.93;;;1.47;;
78426;SDS011;67722;50.204;8.570;2023-08-20T11:33:29;1.58;;;1.48;;
78426;SDS011;67722;50.204;8.570;2023-08-20T11:35:54;1.60;;;1.40;;
78426;SDS011;67722;50.204;8.570;2023-08-20T11:38:21;1.63;;;1.38;;
78426;SDS011;67722;50.204;8.570;2023-08-20T11:40:47;3.08;;;2.58;;
78426;SDS011;67722;50.204;8.570;2023-08-20T11:43:12;1.98;;;1.67;;
78426;SDS011;67722;50.204;8.570;2023-08-20T11:45:45;1.77;;;1.63;;
78426;SDS011;67722;50.204;8.570;2023-08-20T11:48:11;2.20;;;1.42;;
78426;SDS011;67722;50.204;8.570;2023-08-20T11:50:36;1.77;;;1.67;;
78426;SDS011;67722;50.204;8.570;2023-08-20T11:53:02;2.22;;;2.00;;
78426;SDS011;67722;50.204;8.570;2023-08-20T11:55:29;2.42;;;2.22;;
78426;SDS011;67722;50.204;8.570;2023-08-20T11:57:54;2.05;;;1.70;;
78426;SDS011;67722;50.204;8.570;2023-08-20T12:00:26;2.17;;;1.88;;
78426;SDS011;67722;50.204;8.570;2023-08-20T12:02:53;2.13;;;1.92;;
78426;SDS011;67722;50.204;8.570;2023-08-20T12:05:20;1.58;;;1.48;;
78426;SDS011;67722;50.204;8.570;2023-08-20T12:07:56;1.70;;;1.60;;
78426;SDS011;67722;50.204;8.570;2023-08-20T12:10:24;1.70;;;1.48;;
78426;SDS011;67722;50.204;8.570;2023-08-20T12:12:55;2.08;;;1.90;;
78426;SDS011;67722;50.204;8.570;2023-08-20T12:15:21;2.38;;;1.65;;
78426;SDS011;67722;50.204;8.570;2023-08-20T12:17:56;1.48;;;1.25;;
78426;SDS011;67722;50.204;8.570;2023-08-20T12:20:22;1.30;;;1.20;;
78426;SDS011;67722;50.204;8.570;2023-08-20T12:22:48;1.60;;;1.42;;
78426;SDS011;67722;50.204;8.570;2023-08-20T12:25:13;1.92;;;1.75;;
78426;SDS011;67722;50.204;8.570;2023-08-20T12:27:38;1.20;;;1.10;;
78426;SDS011;67722;50.204;8.570;2023-08-20T12:30:04;1.65;;;1.55;;
78426;SDS011;67722;50.204;8.570;2023-08-20T12:32:30;1.67;;;1.58;;
78426;SDS011;67722;50.204;8.570;2023-08-20T12:34:55;2.07;;;1.63;;
78426;SDS011;67722;50.204;8.570;2023-08-20T12:37:21;1.85;;;1.35;;
78426;SDS011;67722;50.204;8.570;2023-08-20T12:39:46;1.50;;;1.23;;
78426;SDS011;67722;50.204;8.570;2023-08-20T12:42:12;2.00;;;1.40;;
78426;SDS011;67722;50.204;8.570;2023-08-20T12:44:37;1.87;;;1.77;;
78426;SDS011;67722;50.204;8.570;2023-08-20T12:47:02;1.80;;;1.33;;
78426;SDS011;67722;50.204;8.570;2023-08-20T12:49:28;1.20;;;1.10;;
78426;SDS011;67722;50.204;8.570;2023-08-20T12:51:53;1.88;;;1.00;;
78426;SDS011;67722;50.204;8.570;2023-08-20T12:54:18;1.70;;;1.33;;
78426;SDS011;67722;50.204;8.570;2023-08-20T12:56:44;2.17;;;1.27;;
78426;SDS011;67722;50.204;8.570;2023-08-20T12:59:09;1.30;;;1.10;;
78426;SDS011;67722;50.204;8.570;2023-08-20T13:01:34;1.60;;;1.37;;
78426;SDS011;67722;50.204;8.570;2023-08-20T13:04:00;1.53;;;1.23;;
78426;SDS011;67722;50.204;8.570;2023-08-20T13:06:25;1.48;;;1.25;;
78426;SDS011;67722;50.204;8.570;2023-08-20T13:08:51;1.30;;;0.82;;
78426;SDS011;67722;50.204;8.570;2023-08-20T13:11:17;1.80;;;1.17;;
78426;SDS011;67722;50.204;8.570;2023-08-20T13:13:42;2.33;;;0.73;;
78426;SDS011;67722;50.204;8.570;2023-08-20T13:16:08;1.95;;;1.33;;
78426;SDS011;67722;50.204;8.570;2023-08-20T13:18:34;1.65;;;1.08;;
78426;SDS011;67722;50.204;8.570;2023-08-20T13:21:00;1.48;;;0.82;;
78426;SDS011;67722;50.204;8.570;2023-08-20T13:23:26;1.23;;;0.85;;
78426;SDS011;67722;50.204;8.570;2023-08-20T13:25:51;1.67;;;1.00;;
78426;SDS011;67722;50.204;8.570;2023-08-20T13:28:16;1.45;;;0.90;;
78426;SDS011;67722;50.204;8.570;2023-08-20T13:30:43;1.38;;;0.88;;
78426;SDS011;67722;50.204;8.570;2023-08-20T13:33:08;1.87;;;1.17;;
78426;SDS011;67722;50.204;8.570;2023-08-20T13:35:33;2.13;;;0.93;;
78426;SDS011;67722;50.204;8.570;2023-08-20T13:37:59;2.78;;;1.13;;
78426;SDS011;67722;50.204;8.570;2023-08-20T13:40:24;1.50;;;0.90;;
78426;SDS011;67722;50.204;8.570;2023-08-20T13:42:50;1.80;;;1.13;;
78426;SDS011;67722;50.204;8.570;2023-08-20T13:45:15;2.13;;;1.00;;
78426;SDS011;67722;50.204;8.570;2023-08-20T13:47:40;1.77;;;0.90;;
78426;SDS011;67722;50.204;8.570;2023-08-20T13:50:06;1.50;;;0.90;;
78426;SDS011;67722;50.204;8.570;2023-08-20T13:52:31;3.15;;;1.08;;
78426;SDS011;67722;50.204;8.570;2023-08-20T13:54:57;1.48;;;0.60;;
78426;SDS011;67722;50.204;8.570;2023-08-20T13:57:22;2.20;;;1.05;;
78426;SDS011;67722;50.204;8.570;2023-08-20T13:59:48;1.05;;;0.60;;
78426;SDS011;67722;50.204;8.570;2023-08-20T14:02:14;1.52;;;0.70;;
78426;SDS011;67722;50.204;8.570;2023-08-20T14:04:39;1.55;;;0.88;;
78426;SDS011;67722;50.204;8.570;2023-08-20T14:07:04;1.47;;;1.00;;
78426;SDS011;67722;50.204;8.570;2023-08-20T14:09:30;1.50;;;0.83;;
78426;SDS011;67722;50.204;8.570;2023-08-20T14:11:55;1.52;;;0.63;;
78426;SDS011;67722;50.204;8.570;2023-08-20T14:14:20;1.27;;;0.70;;
78426;SDS011;67722;50.204;8.570;2023-08-20T14:16:46;1.20;;;0.53;;
78426;SDS011;67722;50.204;8.570;2023-08-20T14:19:11;1.23;;;0.47;;
78426;SDS011;67722;50.204;8.570;2023-08-20T14:21:37;1.63;;;1.03;;
78426;SDS011;67722;50.204;8.570;2023-08-20T14:24:02;1.48;;;0.70;;
78426;SDS011;67722;50.204;8.570;2023-08-20T14:26:28;1.33;;;0.82;;
78426;SDS011;67722;50.204;8.570;2023-08-20T14:28:53;2.45;;;1.00;;
78426;SDS011;67722;50.204;8.570;2023-08-20T14:31:19;1.90;;;0.70;;
78426;SDS011;67722;50.204;8.570;2023-08-20T14:33:44;1.10;;;0.63;;
78426;SDS011;67722;50.204;8.570;2023-08-20T14:36:10;1.52;;;1.00;;
78426;SDS011;67722;50.204;8.570;2023-08-20T14:38:35;2.10;;;0.70;;
78426;SDS011;67722;50.204;8.570;2023-08-20T14:41:01;1.27;;;0.52;;
78426;SDS011;67722;50.204;8.570;2023-08-20T14:43:27;0.98;;;0.68;;
78426;SDS011;67722;50.204;8.570;2023-08-20T14:45:52;1.05;;;0.68;;
78426;SDS011;67722;50.204;8.570;2023-08-20T14:48:19;1.40;;;0.63;;
78426;SDS011;67722;50.204;8.570;2023-08-20T14:50:44;1.53;;;0.70;;
78426;SDS011;67722;50.204;8.570;2023-08-20T14:53:10;2.10;;;1.02;;
78426;SDS011;67722;50.204;8.570;2023-08-20T14:55:35;1.33;;;0.70;;
78426;SDS011;67722;50.204;8.570;2023-08-20T14:58:00;0.77;;;0.47;;
78426;SDS011;67722;50.204;8.570;2023-08-20T15:00:26;0.73;;;0.40;;
78426;SDS011;67722;50.204;8.570;2023-08-20T15:02:51;1.13;;;0.60;;
78426;SDS011;67722;50.204;8.570;2023-08-20T15:05:16;2.53;;;0.80;;
78426;SDS011;67722;50.204;8.570;2023-08-20T15:07:45;1.30;;;0.90;;
78426;SDS011;67722;50.204;8.570;2023-08-20T15:10:10;0.73;;;0.60;;